Thunder radar more information blitzortung!


avis per Pluja more information rain snow radar


Visita la nostra xarxa de llocs de meteo:

Template documentation
and downloads

And another site



Rain From: 17-10-2018 23:00 Until: 18-10-2018 16:59 warning for: Rain Level: Yellow info button

Pagina Historial Weather Underground text

Diari Resum January 17, 2016 Unitats:  Mètric    Imperial   Tant
« Previous Dia
SegĂźent Dia »
Diari Setmana Mensual Anual Personalitzada
  Maxima: Minima: Media:
Temperatura: -17.8 °C -14.4 °C -13.9 °C
Punt de rosada: -17.8 °C -21.3 °C -21 °C
Humitat: Humidity % 37 % 39 %
Wind Speed: 0 km/h 0 km/h 3.2 km/h
RĂ fegues de vent: 0 km/h - -
Vent:- - SSE
Pression baro: 0 hPa 34601.5 hPa -
Precipitacions: 0 mm    
Historical Graphs
 
 
Dades de taula per January 17, 2016
Temps Temperatura Punt de rosada Pression baro Vent Wind Speed RĂ fegues de vent Humitat Rainfall Rate (Hourly)
-17.8 °C -17.8 °C 0 hPa Calm     Humidity % 0 mm
17:29 -12.8 °C -20.5 °C 34635.4 hPa WNW 3.1 km/h 3.1 km/h 37 % 0 mm
17:34 -12.8 °C -20.5 °C 34635.4 hPa SW 6 km/h 6 km/h 37 % 0 mm
17:39 -12.8 °C -20.5 °C 34635.4 hPa SW 3.1 km/h   37 % 0 mm
17:44 -13 °C -20.7 °C 34635.4 hPa Calm     37 % 0 mm
17:49 -13.1 °C -20.8 °C 34635.4 hPa NNE 3.1 km/h 3.1 km/h 37 % 0 mm
17:54 -13.1 °C -20.8 °C 34635.4 hPa NE 6 km/h 6 km/h 37 % 0 mm
17:59 -13.2 °C -20.9 °C 34635.4 hPa North 3.1 km/h 3.1 km/h 37 % 0 mm
18:04 -13.3 °C -21 °C 34635.4 hPa NW 6 km/h 6 km/h 37 % 0 mm
18:09 -13.3 °C -21 °C 34635.4 hPa Calm     37 % 0 mm
18:14 -13.4 °C -21.1 °C 34635.4 hPa NW 6 km/h 6 km/h 37 % 0 mm
18:19 -13.5 °C -20.9 °C 34635.4 hPa Calm     38 % 0 mm
18:24 -13.5 °C -20.9 °C 34635.4 hPa NNW 8 km/h 8 km/h 38 % 0 mm
18:34 -13.5 °C -20.9 °C 34635.4 hPa NE 6 km/h 6 km/h 38 % 0 mm
18:39 -13.5 °C -20.9 °C 34635.4 hPa ENE 3.7 km/h 3.7 km/h 38 % 0 mm
18:44 -13.6 °C -21.1 °C 34635.4 hPa NE 6 km/h 6 km/h 38 % 0 mm
18:49 -13.6 °C -21.1 °C 34635.4 hPa NNE 3.1 km/h   38 % 0 mm
18:54 -13.6 °C -21.1 °C 34635.4 hPa NE 3.1 km/h   38 % 0 mm
19:04 -13.6 °C -21.1 °C 34635.4 hPa Calm     38 % 0 mm
19:09 -13.6 °C -21.1 °C 34635.4 hPa West 6 km/h 6 km/h 38 % 0 mm
19:14 -13.9 °C -21.3 °C 34635.4 hPa WSW 6 km/h 6 km/h 38 % 0 mm
19:19 -13.9 °C -21.3 °C 34635.4 hPa WSW 6 km/h 6 km/h 38 % 0 mm
19:24 -13.9 °C -21.3 °C 34635.4 hPa Calm     38 % 0 mm
19:29 -13.9 °C -21.3 °C 34635.4 hPa WSW 3.1 km/h 3.1 km/h 38 % 0 mm
19:34 -13.9 °C -21.3 °C 34635.4 hPa Calm     38 % 0 mm
19:39 -13.9 °C -21.2 °C 34635.4 hPa Calm     39 % 0 mm
19:44 -13.9 °C -21.2 °C 34635.4 hPa Calm     39 % 0 mm
19:59 -13.9 °C -21.2 °C 34635.4 hPa Calm     39 % 0 mm
20:04 -13.9 °C -21.2 °C 34635.4 hPa WSW 6 km/h   39 % 0 mm
20:14 -13.9 °C -21.2 °C 34635.4 hPa West 6 km/h 6 km/h 39 % 0 mm
20:19 -13.9 °C -21.2 °C 34635.4 hPa WSW 6 km/h 6 km/h 39 % 0 mm
20:24 -14 °C -21.2 °C 34635.4 hPa Calm     39 % 0 mm
20:29 -14 °C -21.1 °C 34635.4 hPa SW 2.3 km/h   40 % 0 mm
20:34 -14 °C -21.1 °C 34635.4 hPa ENE 6 km/h 6 km/h 40 % 0 mm
20:39 -14 °C -21.1 °C 34635.4 hPa ENE 6 km/h 6 km/h 40 % 0 mm
20:44 -14 °C -21.1 °C 34635.4 hPa Calm     40 % 0 mm
20:49 -14.1 °C -21.1 °C 34635.4 hPa ENE 3.7 km/h 3.7 km/h 40 % 0 mm
20:54 -14.1 °C -21.1 °C 34635.4 hPa ENE 3.1 km/h 3.1 km/h 40 % 0 mm
20:59 -14.1 °C -21.1 °C 34635.4 hPa NE 3.7 km/h   40 % 0 mm
21:04 -14.1 °C -21.1 °C 34635.4 hPa NE 3.1 km/h   40 % 0 mm
21:09 -14.2 °C -21.2 °C 34601.5 hPa West 3.7 km/h 3.7 km/h 40 % 0 mm
21:19 -14.2 °C -21.2 °C 34601.5 hPa WSW 6 km/h 6 km/h 40 % 0 mm
21:24 -14.2 °C -21.2 °C 34635.4 hPa Calm     40 % 0 mm
21:29 -14.2 °C -21.2 °C 34635.4 hPa North 3.1 km/h   40 % 0 mm
21:34 -14.2 °C -21.2 °C 34635.4 hPa WNW 6 km/h 6 km/h 40 % 0 mm
21:44 -14.2 °C -21.2 °C 34635.4 hPa NNE 6 km/h 6 km/h 40 % 0 mm
21:49 -14.2 °C -21.2 °C 34635.4 hPa NNE 3.1 km/h 3.1 km/h 40 % 0 mm
21:54 -14.2 °C -21.2 °C 34601.5 hPa WNW 3.1 km/h 3.1 km/h 40 % 0 mm
21:59 -14.2 °C -21.2 °C 34601.5 hPa NNW 3.7 km/h 3.7 km/h 40 % 0 mm
22:04 -14.2 °C -21.2 °C 34601.5 hPa NW 6 km/h 6 km/h 40 % 0 mm
22:09 -14.2 °C -21.2 °C 34601.5 hPa WNW 3.1 km/h   40 % 0 mm
22:14 -14.2 °C -21.2 °C 34601.5 hPa Calm     40 % 0 mm
22:19 -14.2 °C -21.2 °C 34601.5 hPa Calm     40 % 0 mm
22:24 -14.3 °C -20.8 °C 34601.5 hPa WNW 3.1 km/h 3.1 km/h 43 % 0 mm
22:29 -14.3 °C -20.8 °C 34601.5 hPa Calm     43 % 0 mm
22:39 -14.3 °C -20.8 °C 34601.5 hPa North 3.1 km/h   43 % 0 mm
22:44 -14.3 °C -20.8 °C 34601.5 hPa NNW 6 km/h 6 km/h 43 % 0 mm
22:49 -14.3 °C -20.8 °C 34601.5 hPa Calm     43 % 0 mm
22:54 -14.3 °C -20.8 °C 34601.5 hPa Calm     43 % 0 mm
23:04 -14.4 °C -20.9 °C 34601.5 hPa NNE 6 km/h 6 km/h 43 % 0 mm
23:09 -14.4 °C -20.9 °C 34601.5 hPa ENE 3.7 km/h 3.7 km/h 43 % 0 mm
23:14 -14.4 °C -20.9 °C 34601.5 hPa ENE 5.6 km/h   43 % 0 mm
23:24 -14.4 °C -20.9 °C 34601.5 hPa Calm     43 % 0 mm
23:29 -14.4 °C -20.9 °C 34601.5 hPa Calm     43 % 0 mm
Meteo Sesrovires
Elogis d' Weather Underground - 1.25 mb

Guio original per  Jim McMurry - jmcmurry@mwt.net Adaptat per a la plantilla per  Wim van der Kuil - Leuven-Template.eu

Trobareu la nostra informacio del temps tambe a:

Weather Underground

AWEKAS